Flight Track Log - Related Links

Times and Time Zones

All times are in EST time to prevent confusion due to time zone crossing. See the TAM3445 flight status page for this flight to view local times or setup timezone preferences in your user account.


Time Position Orientation Groundspeed Altitude Reporting Facility
EST Latitude Longitude Course Direction KTS MPH feet Rate Location/Type
Wed 05:36:00 PM -18.7047 -46.0592 148° Southeast  Level Estimated
Wed 05:37:00 PM -18.7856 -46.0053 148° Southeast  Level Estimated
Wed 05:38:00 PM -18.8666 -45.9515 148° Southeast  Level Estimated
Wed 05:39:00 PM -18.9475 -45.8975 148° Southeast  Level Estimated
Wed 05:40:00 PM -19.0284 -45.8436 148° Southeast  Level Estimated
Wed 05:41:00 PM -19.1092 -45.7895 148° Southeast  Level Estimated
Wed 05:42:00 PM -19.1901 -45.7354 148° Southeast  Level Estimated
Wed 05:43:00 PM -19.2710 -45.6813 148° Southeast  Level Estimated
Wed 05:44:00 PM -19.3518 -45.6271 148° Southeast  Level Estimated
Wed 05:45:00 PM -19.4326 -45.5728 148° Southeast  Level Estimated
Wed 05:46:00 PM -19.5134 -45.5185 148° Southeast  Level Estimated
Wed 05:47:00 PM -19.5942 -45.4642 148° Southeast  Level Estimated
Wed 05:48:00 PM -19.6750 -45.4098 148° Southeast  Level Estimated
Wed 05:49:00 PM -19.7557 -45.3553 148° Southeast  Level Estimated
Wed 05:50:00 PM -19.8365 -45.3008 148° Southeast  Level Estimated
Wed 05:51:00 PM -19.9172 -45.2462 148° Southeast  Level Estimated
Wed 05:52:00 PM -19.9979 -45.1916 148° Southeast  Level Estimated
Wed 05:53:00 PM -20.0786 -45.1369 148° Southeast  Level Estimated
Wed 05:54:00 PM -20.1593 -45.0821 148° Southeast  Level Estimated
Wed 05:55:00 PM -20.2399 -45.0273 147° Southeast  Level Estimated
Wed 05:56:00 PM -20.3205 -44.9725 147° Southeast  Level Estimated
Wed 05:57:00 PM -20.4012 -44.9175 147° Southeast  Level Estimated
Wed 05:58:00 PM -20.4818 -44.8626 147° Southeast  Level Estimated
Wed 05:59:00 PM -20.5623 -44.8075 147° Southeast  Level Estimated
Wed 06:00:00 PM -20.6429 -44.7525 147° Southeast  Level Estimated
Wed 06:01:00 PM -20.7235 -44.6973 147° Southeast  Level Estimated
Wed 06:02:00 PM -20.8040 -44.6421 147° Southeast  Level Estimated
Wed 06:03:00 PM -20.8845 -44.5868 147° Southeast  Level Estimated
Wed 06:04:00 PM -20.9650 -44.5315 147° Southeast  Level Estimated
Wed 06:05:00 PM -21.0455 -44.4761 147° Southeast  Level Estimated
Wed 06:06:00 PM -21.1259 -44.4207 147° Southeast  Level Estimated
Wed 06:07:00 PM -21.2064 -44.3652 147° Southeast  Level Estimated
Wed 06:08:00 PM -21.2868 -44.3096 147° Southeast  Level Estimated
Wed 06:09:00 PM -21.3672 -44.2540 147° Southeast  Level Estimated
Wed 06:10:00 PM -21.4476 -44.1983 147° Southeast  Level Estimated
Wed 06:11:00 PM -21.5280 -44.1425 147° Southeast  Level Estimated
Wed 06:12:00 PM -21.6083 -44.0867 147° Southeast  Level Estimated
Wed 06:13:00 PM -21.6887 -44.0308 147° Southeast  Level Estimated
Wed 06:14:00 PM -21.7690 -43.9749 147° Southeast  Level Estimated
Wed 06:15:00 PM -21.8493 -43.9189 147° Southeast  Level Estimated
Wed 06:16:00 PM -21.9295 -43.8629 147° Southeast  Level Estimated
Wed 06:17:00 PM -22.0098 -43.8067 147° Southeast  Level Estimated
Wed 06:18:00 PM -22.0900 -43.7505 147° Southeast  Level Estimated
Wed 06:19:00 PM -22.1702 -43.6943 147° Southeast  Level Estimated
Wed 06:20:00 PM -22.2505 -43.6380 147° Southeast  Level Estimated
Wed 06:21:00 PM -22.3306 -43.5816 147° Southeast  Level Estimated

Login

Don't have an account? Register now (free) for customized features, flight alerts, and more!